Time;durP1;ratioP1;P1;durP2;ratioP2;P2;SDS_P1;SDS_P2;PMS_P1;PMS_P2;Temp;Humidity;BMP_temperature;BMP_pressure;BME280_temperature;BME280_humidity;BME280_pressure;Samples;Min_cycle;Max_cycle;Signal;HPM_P1;HPM_P2
2022/08/17 00:00:09;;;;;;;5.50;3.65;;;;;;;22.23;51.01;98849.47;344991;28;1664;-80
2022/08/17 00:00:43;;;;;;;4.63;3.67;;;;;;;22.22;51.34;98855.75;345890;28;1465;-80
2022/08/17 00:01:06;;;;;;;4.20;3.72;;;;;;;22.24;51.03;98853.00;346210;28;1243;-80
2022/08/17 00:01:25;;;;;;;4.45;3.40;;;;;;;22.25;50.88;98850.19;346259;28;1046;-80
2022/08/17 00:01:38;;;;;;;3.97;3.58;;;;;;;22.25;51.16;98852.84;346486;28;960;-80
2022/08/17 00:02:04;;;;;;;5.13;3.78;;;;;;;22.27;50.90;98847.41;346763;28;1212;-81
2022/08/17 00:02:35;;;;;;;5.18;3.75;;;;;;;22.25;51.06;98842.25;344543;28;1616;-80
2022/08/17 00:03:04;;;;;;;4.30;3.55;;;;;;;22.25;51.04;98849.38;343601;28;1165;-81
2022/08/17 00:03:21;;;;;;;6.25;3.90;;;;;;;22.25;51.07;98854.66;344046;28;1047;-81
2022/08/17 00:03:40;;;;;;;5.22;3.70;;;;;;;22.25;51.15;98844.06;343684;28;2104;-81
2022/08/17 00:03:53;;;;;;;4.13;3.70;;;;;;;22.24;50.87;98847.72;343363;28;1242;-80
2022/08/17 00:04:07;;;;;;;4.03;3.60;;;;;;;22.23;50.88;98851.31;345600;28;1743;-81
2022/08/17 00:04:22;;;;;;;5.03;3.50;;;;;;;22.20;50.87;98847.13;345149;28;1065;-81
2022/08/17 00:04:34;;;;;;;5.00;3.63;;;;;;;22.21;50.96;98848.78;345444;28;1530;-80
2022/08/17 00:04:46;;;;;;;3.70;3.30;;;;;;;22.21;51.18;98847.97;344543;28;1621;-81
2022/08/17 00:05:01;;;;;;;3.78;3.38;;;;;;;22.22;51.10;98849.66;345348;28;955;-81
2022/08/17 00:05:14;;;;;;;3.97;3.58;;;;;;;22.18;51.46;98854.38;343509;28;1784;-81
2022/08/17 00:05:29;;;;;;;4.05;3.65;;;;;;;22.17;50.78;98842.13;343916;28;1447;-80
2022/08/17 00:05:47;;;;;;;3.72;3.42;;;;;;;22.19;51.01;98850.75;342663;28;1750;-81
2022/08/17 00:06:10;;;;;;;4.10;3.70;;;;;;;22.18;50.90;98841.16;343377;28;1709;-81
2022/08/17 00:06:26;;;;;;;4.57;3.97;;;;;;;22.20;51.54;98851.59;343146;28;1916;-80
2022/08/17 00:06:38;;;;;;;4.25;3.83;;;;;;;22.24;51.11;98853.00;343609;28;1192;-80
2022/08/17 00:06:52;;;;;;;4.15;3.75;;;;;;;22.25;51.47;98849.38;343481;28;1878;-80
2022/08/17 00:07:04;;;;;;;4.28;3.88;;;;;;;22.23;51.35;98844.19;342636;28;1203;-80
2022/08/17 00:07:16;;;;;;;4.30;3.90;;;;;;;22.20;51.22;98846.31;343647;28;1883;-80
2022/08/17 00:07:28;;;;;;;4.43;3.90;;;;;;;22.19;50.95;98842.81;343808;28;1156;-81
2022/08/17 00:07:39;;;;;;;4.10;3.70;;;;;;;22.18;51.20;98843.81;344356;28;745;-81
2022/08/17 00:07:52;;;;;;;4.85;3.67;;;;;;;22.16;51.48;98851.06;344102;28;1784;-80
2022/08/17 00:08:04;;;;;;;4.88;3.70;;;;;;;22.17;51.46;98847.41;345267;28;1422;-81
2022/08/17 00:08:21;;;;;;;5.53;3.80;;;;;;;22.17;51.31;98839.47;343710;28;1040;-81
2022/08/17 00:08:36;;;;;;;4.50;3.70;;;;;;;22.14;51.21;98845.91;341432;29;1230;-80
2022/08/17 00:08:54;;;;;;;4.57;3.60;;;;;;;22.09;51.07;98842.00;341510;28;1531;-81
2022/08/17 00:09:06;;;;;;;5.13;3.78;;;;;;;22.10;51.44;98847.16;343262;28;1047;-81
2022/08/17 00:09:18;;;;;;;4.80;4.03;;;;;;;22.11;51.12;98847.97;345390;28;862;-80
2022/08/17 00:09:30;;;;;;;5.38;3.92;;;;;;;22.13;51.39;98846.03;344264;28;1228;-80
2022/08/17 00:09:42;;;;;;;5.50;3.70;;;;;;;22.12;51.54;98844.38;343365;28;1658;-80
2022/08/17 00:09:56;;;;;;;5.00;3.50;;;;;;;22.06;51.22;98842.31;344143;28;1091;-81
2022/08/17 00:10:08;;;;;;;4.13;3.70;;;;;;;22.11;51.16;98842.69;342190;28;1056;-81
2022/08/17 00:10:21;;;;;;;4.50;3.90;;;;;;;22.14;51.03;98847.72;342802;28;1202;-80
2022/08/17 00:10:33;;;;;;;5.65;4.00;;;;;;;22.14;51.40;98839.78;341561;28;1052;-80
2022/08/17 00:10:47;;;;;;;5.47;3.97;;;;;;;22.15;51.17;98844.06;343276;28;1551;-80
2022/08/17 00:11:03;;;;;;;5.10;3.72;;;;;;;22.15;51.10;98841.44;344346;28;1413;-81
2022/08/17 00:11:44;;;;;;;4.95;3.75;;;;;;;22.19;51.16;98840.16;344102;28;1102;-80
2022/08/17 00:12:16;;;;;;;4.82;3.55;;;;;;;22.23;50.89;98844.19;341317;29;1445;-80
2022/08/17 00:12:48;;;;;;;5.72;3.60;;;;;;;22.22;51.08;98845.19;345407;28;1735;-81
2022/08/17 00:13:08;;;;;;;5.65;3.70;;;;;;;22.22;50.81;98837.25;345173;28;1523;-80
2022/08/17 00:14:00;;;;;;;4.80;3.60;;;;;;;22.16;51.09;98845.75;345370;28;1375;-80
2022/08/17 00:14:15;;;;;;;4.50;3.80;;;;;;;22.19;50.92;98840.16;344938;28;1139;-80
2022/08/17 00:14:28;;;;;;;5.70;3.80;;;;;;;22.16;51.22;98835.16;345265;28;872;-80
2022/08/17 00:14:40;;;;;;;6.03;3.63;;;;;;;22.20;51.24;98831.25;344710;28;1506;-80
2022/08/17 00:14:52;;;;;;;5.10;3.50;;;;;;;22.18;51.33;98843.81;346385;28;1072;-80
2022/08/17 00:15:05;;;;;;;5.20;3.45;;;;;;;22.20;51.42;98841.84;346037;28;1788;-80
2022/08/17 00:15:22;;;;;;;6.20;3.55;;;;;;;22.23;51.20;98840.72;346472;28;1070;-80
2022/08/17 00:15:34;;;;;;;6.00;3.75;;;;;;;22.24;51.49;98840.59;346805;28;788;-80
2022/08/17 00:15:46;;;;;;;4.78;3.75;;;;;;;22.25;51.66;98839.63;345297;28;1963;-81
2022/08/17 00:16:03;;;;;;;4.50;3.67;;;;;;;22.24;51.44;98839.78;346497;28;1139;-81
2022/08/17 00:16:38;;;;;;;4.82;3.72;;;;;;;22.23;51.18;98836.25;346439;28;1408;-80
2022/08/17 00:17:08;;;;;;;4.40;3.78;;;;;;;22.21;51.28;98842.66;344028;28;1340;-80
2022/08/17 00:17:20;;;;;;;4.47;3.72;;;;;;;22.21;51.27;98846.16;344322;28;783;-80
2022/08/17 00:17:32;;;;;;;4.85;3.63;;;;;;;22.22;51.18;98844.34;342923;28;1300;-80
2022/08/17 00:17:47;;;;;;;5.50;3.80;;;;;;;22.20;51.42;98844.50;343053;28;1191;-80
2022/08/17 00:17:59;;;;;;;6.53;3.88;;;;;;;22.19;51.13;98839.34;343672;28;1711;-80
2022/08/17 00:18:13;;;;;;;6.20;3.80;;;;;;;22.19;51.23;98848.09;344304;28;1576;-80
2022/08/17 00:18:45;;;;;;;6.20;3.70;;;;;;;22.18;51.31;98838.50;342570;28;1681;-80
2022/08/17 00:19:22;;;;;;;6.20;4.28;;;;;;;22.14;51.54;98845.06;343843;28;1525;-80
2022/08/17 00:19:34;;;;;;;5.25;4.30;;;;;;;22.15;51.61;98849.38;344926;28;870;-80
2022/08/17 00:19:46;;;;;;;6.55;4.10;;;;;;;22.16;51.10;98845.75;344154;28;1558;-80
2022/08/17 00:19:58;;;;;;;7.80;3.92;;;;;;;22.16;51.30;98843.09;345085;28;1757;-80
2022/08/17 00:20:12;;;;;;;5.85;3.83;;;;;;;22.16;51.80;98845.75;344318;28;1366;-80
2022/08/17 00:20:25;;;;;;;4.07;3.67;;;;;;;22.16;51.44;98840.47;344797;28;835;-80
2022/08/17 00:20:44;;;;;;;4.45;3.55;;;;;;;22.11;51.50;98843.56;345506;28;1609;-80
2022/08/17 00:20:57;;;;;;;4.50;3.72;;;;;;;22.13;51.76;98841.59;345612;28;1436;-81
2022/08/17 00:21:10;;;;;;;4.18;3.80;;;;;;;22.16;51.88;98845.75;346913;28;2062;-81
2022/08/17 00:21:25;;;;;;;4.45;3.72;;;;;;;22.18;51.79;98843.81;346295;28;4210;-80
2022/08/17 00:21:59;;;;;;;6.10;3.70;;;;;;;22.19;51.60;98844.63;346576;28;1507;-80
2022/08/17 00:22:31;;;;;;;4.35;3.95;;;;;;;22.18;51.98;98843.81;345345;28;1386;-80
2022/08/17 00:22:47;;;;;;;5.15;3.60;;;;;;;22.15;51.83;98838.78;344000;28;1219;-80
2022/08/17 00:23:12;;;;;;;6.13;3.88;;;;;;;22.16;51.39;98837.81;343141;28;1148;-80
2022/08/17 00:23:26;;;;;;;5.72;4.00;;;;;;;22.14;51.78;98837.13;344824;28;996;-81
2022/08/17 00:23:40;;;;;;;5.95;4.00;;;;;;;22.14;51.55;98839.78;345310;28;1196;-81
2022/08/17 00:24:01;;;;;;;5.18;3.92;;;;;;;22.11;52.17;98840.03;345074;28;1431;-80
2022/08/17 00:24:13;;;;;;;5.60;4.10;;;;;;;22.11;51.91;98842.69;346058;28;1540;-80
2022/08/17 00:24:27;;;;;;;4.55;4.05;;;;;;;22.11;51.48;98843.56;345966;28;1850;-81
2022/08/17 00:24:39;;;;;;;4.47;4.07;;;;;;;22.10;52.33;98841.03;344239;28;1323;-80
2022/08/17 00:24:50;;;;;;;5.70;4.05;;;;;;;22.12;51.79;98839.09;345217;28;1539;-81
2022/08/17 00:25:08;;;;;;;6.72;4.00;;;;;;;22.07;51.97;98839.53;343654;28;1327;-81
2022/08/17 00:25:20;;;;;;;5.93;3.97;;;;;;;22.08;52.08;98843.00;345381;28;1019;-80
2022/08/17 00:25:32;;;;;;;5.60;3.95;;;;;;;22.09;51.92;98847.28;345570;28;831;-81
2022/08/17 00:25:45;;;;;;;5.53;3.80;;;;;;;22.09;51.98;98844.66;345063;28;1284;-81
2022/08/17 00:25:58;;;;;;;5.65;3.80;;;;;;;22.08;51.90;98848.28;345224;28;1558;-81
2022/08/17 00:26:10;;;;;;;4.78;4.00;;;;;;;22.10;51.67;98841.88;345569;28;1057;-81
2022/08/17 00:26:26;;;;;;;4.60;3.97;;;;;;;22.12;51.79;98849.66;343902;28;1483;-81
2022/08/17 00:26:55;;;;;;;9.20;3.90;;;;;;;22.14;51.93;98847.72;344440;28;1427;-80
2022/08/17 00:27:07;;;;;;;7.32;3.72;;;;;;;22.08;51.56;98843.00;346060;28;1564;-80
2022/08/17 00:27:19;;;;;;;4.40;3.60;;;;;;;22.09;51.42;98844.66;345123;28;1119;-80
2022/08/17 00:27:32;;;;;;;4.18;3.80;;;;;;;22.09;51.79;98840.22;345446;28;1674;-81
2022/08/17 00:27:44;;;;;;;4.45;4.05;;;;;;;22.06;51.54;98844.94;345304;28;1632;-80
2022/08/17 00:27:56;;;;;;;4.57;4.10;;;;;;;22.08;51.77;98843.00;344438;28;1350;-81
2022/08/17 00:28:08;;;;;;;4.72;3.90;;;;;;;22.07;51.46;98839.53;345463;28;1454;-81
2022/08/17 00:28:21;;;;;;;4.15;3.75;;;;;;;22.08;51.80;98846.47;345089;28;1787;-81
2022/08/17 00:28:33;;;;;;;4.72;3.90;;;;;;;22.10;51.96;98844.50;345178;28;1072;-81
2022/08/17 00:28:47;;;;;;;4.50;4.10;;;;;;;22.08;51.83;98845.63;344163;28;1831;-80
2022/08/17 00:29:04;;;;;;;4.32;3.92;;;;;;;22.10;51.55;98851.63;345515;28;1128;-81
2022/08/17 00:29:16;;;;;;;4.38;4.00;;;;;;;22.10;51.66;98841.03;345699;28;1768;-81
2022/08/17 00:29:31;;;;;;;4.63;4.22;;;;;;;22.08;51.47;98845.63;345613;28;987;-81
2022/08/17 00:29:44;;;;;;;4.55;4.15;;;;;;;22.09;51.57;98847.28;345441;28;1169;-82
2022/08/17 00:29:56;;;;;;;4.40;4.00;;;;;;;22.10;51.58;98841.03;345149;28;1203;-80
2022/08/17 00:30:10;;;;;;;4.20;3.80;;;;;;;22.10;51.48;98843.69;345123;28;1024;-81
2022/08/17 00:30:22;;;;;;;4.78;4.00;;;;;;;22.09;51.72;98844.66;345421;28;1145;-81
2022/08/17 00:30:34;;;;;;;5.20;4.07;;;;;;;22.08;51.78;98838.53;344192;28;1146;-80
2022/08/17 00:31:02;;;;;;;4.18;3.75;;;;;;;22.10;51.59;98841.03;343518;28;1095;-81
2022/08/17 00:31:14;;;;;;;5.35;3.72;;;;;;;22.07;51.65;98846.59;343980;28;729;-81
2022/08/17 00:31:26;;;;;;;5.05;3.65;;;;;;;22.05;51.75;98843.25;344147;28;1018;-80
2022/08/17 00:31:39;;;;;;;5.80;3.92;;;;;;;22.02;51.72;98843.56;343905;28;1132;-81
2022/08/17 00:31:51;;;;;;;7.55;4.18;;;;;;;22.03;51.99;98839.94;342813;28;1075;-81
2022/08/17 00:32:03;;;;;;;9.02;4.22;;;;;;;22.01;52.00;98842.72;342902;28;1252;-81
2022/08/17 00:32:41;;;;;;;5.00;4.32;;;;;;;22.04;51.68;98841.63;341792;28;1497;-81
2022/08/17 00:33:21;;;;;;;4.47;3.90;;;;;;;22.08;51.99;98837.69;342905;28;1334;-81
2022/08/17 00:33:34;;;;;;;6.88;4.18;;;;;;;22.08;51.64;98840.34;344222;28;1135;-80
2022/08/17 00:33:47;;;;;;;7.78;4.28;;;;;;;22.08;52.03;98843.00;344898;28;1035;-81
2022/08/17 00:33:59;;;;;;;5.60;4.18;;;;;;;22.08;51.81;98840.34;346746;28;1708;-82
2022/08/17 00:34:11;;;;;;;4.85;4.00;;;;;;;22.10;51.72;98843.69;345796;28;834;-81
2022/08/17 00:34:24;;;;;;;5.40;3.97;;;;;;;22.10;51.84;98841.03;345709;28;748;-81
2022/08/17 00:34:38;;;;;;;5.57;4.30;;;;;;;22.09;51.80;98839.34;346728;28;1376;-81
2022/08/17 00:34:50;;;;;;;5.20;4.30;;;;;;;22.09;51.89;98839.34;346497;28;1019;-81
2022/08/17 00:35:05;;;;;;;4.45;4.05;;;;;;;22.08;51.81;98843.00;346856;28;739;-81
2022/08/17 00:35:22;;;;;;;4.28;3.85;;;;;;;22.09;52.02;98839.34;345122;28;1094;-81
2022/08/17 00:35:34;;;;;;;5.85;3.67;;;;;;;22.10;51.70;98835.75;345586;28;1050;-80
2022/08/17 00:35:47;;;;;;;7.10;4.32;;;;;;;22.06;51.79;98840.47;344861;28;1239;-81
2022/08/17 00:36:00;;;;;;;7.32;4.53;;;;;;;22.07;51.81;98841.31;345003;28;1298;-81
2022/08/17 00:36:14;;;;;;;6.85;4.43;;;;;;;22.08;51.59;98845.63;344072;28;813;-81
2022/08/17 00:36:26;;;;;;;4.45;3.80;;;;;;;22.08;52.18;98843.00;343957;28;1132;-81
2022/08/17 00:36:38;;;;;;;6.10;3.60;;;;;;;22.08;52.01;98838.53;344487;28;1168;-81
2022/08/17 00:36:50;;;;;;;6.78;3.70;;;;;;;22.07;52.29;98841.31;346264;28;1794;-81
2022/08/17 00:37:02;;;;;;;6.13;3.92;;;;;;;22.07;52.39;98838.66;345056;28;1137;-81
2022/08/17 00:37:14;;;;;;;5.25;4.10;;;;;;;22.05;52.48;98840.63;344774;28;1587;-81
2022/08/17 00:37:26;;;;;;;4.93;3.95;;;;;;;22.04;52.20;98838.97;343597;28;939;-81
2022/08/17 00:37:39;;;;;;;5.97;4.10;;;;;;;22.04;51.97;98842.44;344598;28;1043;-81
2022/08/17 00:37:51;;;;;;;5.10;4.10;;;;;;;22.05;51.91;98844.09;346166;28;1800;-80
2022/08/17 00:38:05;;;;;;;4.55;4.07;;;;;;;22.06;52.07;98843.13;346779;28;1281;-80
2022/08/17 00:38:17;;;;;;;4.50;4.03;;;;;;;22.07;51.80;98841.31;346355;28;1081;-81
2022/08/17 00:38:30;;;;;;;4.47;4.00;;;;;;;22.08;52.29;98837.69;346785;28;1172;-81
2022/08/17 00:38:43;;;;;;;4.22;3.83;;;;;;;22.08;52.02;98835.06;345074;28;1043;-81
2022/08/17 00:38:55;;;;;;;4.13;3.65;;;;;;;22.06;52.08;98839.66;344177;28;1055;-81
2022/08/17 00:39:07;;;;;;;7.75;3.95;;;;;;;22.08;51.72;98843.00;343230;28;1758;-81
2022/08/17 00:39:19;;;;;;;7.70;4.00;;;;;;;22.10;52.18;98836.56;345076;28;1054;-81
2022/08/17 00:39:31;;;;;;;4.68;4.03;;;;;;;22.08;52.12;98837.69;344934;28;1161;-81
2022/08/17 00:39:43;;;;;;;5.00;4.00;;;;;;;22.08;52.27;98837.69;344547;28;1556;-80
2022/08/17 00:39:55;;;;;;;4.90;4.03;;;;;;;22.09;52.01;98836.72;343974;28;1133;-80
2022/08/17 00:40:09;;;;;;;4.82;3.80;;;;;;;22.09;52.08;98839.34;344171;28;1637;-80
2022/08/17 00:40:23;;;;;;;5.10;3.90;;;;;;;22.09;51.73;98839.34;344001;28;973;-80
2022/08/17 00:40:42;;;;;;;6.72;4.07;;;;;;;22.10;51.48;98835.75;343253;28;1051;-81
2022/08/17 00:41:02;;;;;;;6.68;4.20;;;;;;;22.09;51.72;98839.34;345074;28;1489;-80
2022/08/17 00:41:18;;;;;;;4.63;4.05;;;;;;;22.09;51.58;98839.34;344433;28;2117;-81
2022/08/17 00:41:31;;;;;;;5.13;4.05;;;;;;;22.08;51.81;98838.53;343768;28;1184;-81
2022/08/17 00:41:43;;;;;;;5.22;3.83;;;;;;;22.05;52.08;98838.78;344905;28;1272;-81
2022/08/17 00:41:55;;;;;;;4.93;3.75;;;;;;;22.07;52.12;98833.38;343801;28;1554;-81
2022/08/17 00:42:18;;;;;;;6.35;4.13;;;;;;;22.08;51.96;98837.69;343753;28;1023;-81
2022/08/17 00:42:30;;;;;;;6.13;4.05;;;;;;;22.07;52.06;98830.72;345081;28;1192;-81
2022/08/17 00:42:43;;;;;;;6.70;4.00;;;;;;;22.06;52.15;98834.38;344368;28;1277;-81
2022/08/17 00:42:56;;;;;;;5.93;4.13;;;;;;;22.07;51.87;98836.88;343039;28;1192;-81
2022/08/17 00:43:18;;;;;;;5.47;4.13;;;;;;;22.06;52.49;98831.72;343690;28;1232;-81
2022/08/17 00:43:33;;;;;;;4.30;3.80;;;;;;;22.06;52.07;98826.44;343454;28;1426;-81
2022/08/17 00:43:52;;;;;;;4.57;4.00;;;;;;;22.05;52.13;98828.22;342351;28;1634;-81
2022/08/17 00:44:04;;;;;;;4.28;3.88;;;;;;;22.07;52.25;98830.72;344883;28;1201;-81
2022/08/17 00:44:16;;;;;;;4.10;3.70;;;;;;;22.06;52.44;98835.19;345347;28;1065;-81
2022/08/17 00:44:28;;;;;;;4.43;3.80;;;;;;;22.05;52.51;98830.84;345206;28;1605;-80
2022/08/17 00:44:43;;;;;;;5.65;4.13;;;;;;;22.05;52.54;98828.22;345139;28;1245;-81
2022/08/17 00:44:55;;;;;;;5.18;4.13;;;;;;;22.02;52.20;98828.50;345568;28;1155;-81
2022/08/17 00:45:10;;;;;;;4.32;3.90;;;;;;;22.03;52.31;98835.47;346320;28;1157;-81
2022/08/17 00:45:22;;;;;;;4.20;3.80;;;;;;;22.05;52.25;98827.38;345205;28;1118;-81
2022/08/17 00:45:34;;;;;;;4.28;3.65;;;;;;;22.04;52.20;98825.72;344228;28;1521;-81
2022/08/17 00:45:47;;;;;;;5.25;3.70;;;;;;;22.06;52.32;98823.78;342805;28;1662;-81
2022/08/17 00:46:03;;;;;;;5.45;3.80;;;;;;;22.05;51.83;98827.38;343062;28;1216;-81
2022/08/17 00:46:25;;;;;;;4.40;4.00;;;;;;;22.02;52.31;98835.63;342498;28;1022;-81
2022/08/17 00:46:40;;;;;;;5.40;4.20;;;;;;;22.02;52.28;98827.69;343802;28;1998;-81
2022/08/17 00:46:53;;;;;;;5.70;4.20;;;;;;;22.03;52.20;98829.34;342837;28;886;-80
2022/08/17 00:47:05;;;;;;;5.05;4.20;;;;;;;22.03;51.98;98830.16;343878;28;1081;-81
2022/08/17 00:47:17;;;;;;;4.97;4.00;;;;;;;22.03;52.23;98826.69;343934;28;1039;-81
2022/08/17 00:47:29;;;;;;;5.20;4.00;;;;;;;22.02;52.61;98828.50;343647;28;1170;-81
2022/08/17 00:47:42;;;;;;;5.13;3.90;;;;;;;21.98;52.43;98824.50;345815;28;1393;-81
2022/08/17 00:47:54;;;;;;;5.63;4.00;;;;;;;22.00;52.19;98824.34;346510;28;1316;-81
2022/08/17 00:48:07;;;;;;;5.93;4.10;;;;;;;22.00;52.55;98824.34;345256;28;748;-81
2022/08/17 00:48:39;;;;;;;4.47;4.07;;;;;;;21.98;52.02;98823.66;345314;28;1574;-81
2022/08/17 00:48:51;;;;;;;5.68;4.30;;;;;;;21.98;52.34;98826.31;346502;28;1066;-81
2022/08/17 00:49:05;;;;;;;5.85;4.22;;;;;;;21.98;52.36;98821.03;346280;28;1215;-81
2022/08/17 00:49:22;;;;;;;5.85;4.20;;;;;;;21.92;52.38;98822.41;345217;28;1019;-81
2022/08/17 00:49:34;;;;;;;6.40;3.95;;;;;;;21.88;52.47;98826.31;345295;28;1073;-81
2022/08/17 00:49:46;;;;;;;5.65;3.80;;;;;;;21.88;52.38;98821.84;344914;28;1618;-81
2022/08/17 00:49:58;;;;;;;5.70;3.92;;;;;;;21.90;52.15;98822.56;344857;28;1220;-81
2022/08/17 00:50:13;;;;;;;5.47;4.07;;;;;;;21.92;52.09;98827.72;345404;28;1914;-81
2022/08/17 00:50:26;;;;;;;5.80;4.05;;;;;;;21.88;52.04;98824.50;343134;28;1408;-81
2022/08/17 00:50:43;;;;;;;5.47;4.05;;;;;;;21.89;52.00;98823.53;344101;28;1166;-81
2022/08/17 00:51:04;;;;;;;6.45;3.95;;;;;;;21.90;52.22;98827.84;343039;28;1495;-81
2022/08/17 00:51:29;;;;;;;7.10;3.92;;;;;;;21.91;52.05;98826.88;341905;28;2100;-81
2022/08/17 00:52:03;;;;;;;5.47;4.10;;;;;;;21.92;52.24;98825.88;344001;28;1153;-81
2022/08/17 00:52:28;;;;;;;9.20;3.83;;;;;;;21.96;52.43;98830.91;344998;28;1373;-81
2022/08/17 00:52:52;;;;;;;7.30;4.10;;;;;;;21.98;52.02;98827.13;345117;28;1196;-81
2022/08/17 00:53:06;;;;;;;4.60;3.92;;;;;;;21.95;52.14;98822.13;344233;28;1166;-80
2022/08/17 00:53:19;;;;;;;5.18;3.90;;;;;;;21.93;52.01;98824.06;346089;28;1031;-80
2022/08/17 00:53:33;;;;;;;6.43;4.07;;;;;;;21.92;52.23;98822.41;345498;28;856;-81
2022/08/17 00:53:53;;;;;;;7.03;4.25;;;;;;;21.94;52.30;98821.28;345496;28;1637;-81
2022/08/17 00:54:12;;;;;;;4.78;4.15;;;;;;;21.96;52.43;98822.97;343893;28;1206;-81
2022/08/17 00:54:32;;;;;;;4.95;4.45;;;;;;;21.96;52.35;98822.97;343926;28;1035;-81
2022/08/17 00:54:54;;;;;;;6.13;4.25;;;;;;;21.94;52.36;98823.94;345865;28;1644;-81
2022/08/17 00:55:07;;;;;;;5.60;4.10;;;;;;;21.93;52.23;98824.94;343734;28;1078;-81
2022/08/17 00:55:21;;;;;;;4.45;4.05;;;;;;;21.93;52.55;98824.06;345559;28;1725;-81
2022/08/17 00:55:34;;;;;;;4.68;4.28;;;;;;;21.94;52.21;98829.22;346302;28;804;-81
2022/08/17 00:55:47;;;;;;;4.70;4.30;;;;;;;21.93;51.92;98829.34;345927;28;1710;-81
2022/08/17 00:56:01;;;;;;;4.95;4.25;;;;;;;21.92;52.26;98819.78;346395;28;1449;-81
2022/08/17 00:56:19;;;;;;;7.07;4.10;;;;;;;21.91;52.10;98821.59;346437;28;1156;-81
2022/08/17 00:56:36;;;;;;;5.60;3.83;;;;;;;21.92;52.35;98822.41;346571;28;1027;-81
2022/08/17 00:56:57;;;;;;;4.60;4.00;;;;;;;21.91;52.38;98826.88;346297;28;1715;-81
2022/08/17 00:57:38;;;;;;;5.85;4.10;;;;;;;21.87;52.57;98824.63;346692;28;1124;-81
2022/08/17 00:57:54;;;;;;;4.60;4.07;;;;;;;21.86;52.72;98826.47;345170;28;1384;-81
2022/08/17 00:58:07;;;;;;;5.28;4.03;;;;;;;21.85;52.76;98831.88;344634;28;1058;-81
2022/08/17 00:58:19;;;;;;;6.03;4.15;;;;;;;21.84;53.00;98823.13;344288;28;1633;-81
2022/08/17 00:58:50;;;;;;;5.82;4.20;;;;;;;21.85;52.80;98829.25;342228;28;2132;-81
2022/08/17 00:59:06;;;;;;;4.72;4.10;;;;;;;21.85;52.97;98827.44;343017;28;1545;-82
2022/08/17 00:59:24;;;;;;;5.03;4.47;;;;;;;21.87;52.46;98829.94;342715;28;1111;-82
2022/08/17 00:59:42;;;;;;;5.40;4.55;;;;;;;21.87;52.74;98824.63;342610;28;1462;-82
2022/08/17 00:59:59;;;;;;;4.70;4.20;;;;;;;21.87;52.69;98829.94;343858;28;1555;-82
2022/08/17 01:00:25;;;;;;;4.55;4.15;;;;;;;21.88;52.28;98816.56;342525;28;1317;-82
2022/08/17 01:00:40;;;;;;;4.75;4.35;;;;;;;21.89;52.38;98827.97;345377;28;1215;-82
2022/08/17 01:00:53;;;;;;;6.50;4.55;;;;;;;21.88;52.41;98829.78;344742;28;1185;-82
2022/08/17 01:01:07;;;;;;;7.20;4.50;;;;;;;21.89;52.40;98826.19;345575;28;1441;-82
2022/08/17 01:01:20;;;;;;;7.07;4.38;;;;;;;21.91;52.54;98826.03;344421;28;1701;-80
2022/08/17 01:01:33;;;;;;;5.68;4.30;;;;;;;21.83;52.84;98824.13;344234;28;778;-80
2022/08/17 01:01:48;;;;;;;5.30;4.35;;;;;;;21.82;52.58;98825.06;343333;28;1873;-80
2022/08/17 01:02:01;;;;;;;4.97;4.40;;;;;;;21.84;52.67;98833.72;344216;28;1049;-80
2022/08/17 01:02:15;;;;;;;5.78;4.47;;;;;;;21.81;52.69;98835.78;343103;28;1135;-79
2022/08/17 01:02:29;;;;;;;5.57;4.53;;;;;;;21.79;52.53;98828.00;343874;28;1115;-79
2022/08/17 01:02:46;;;;;;;5.45;4.50;;;;;;;21.81;52.46;98831.34;343550;28;1718;-79
2022/08/17 01:03:06;;;;;;;5.20;4.40;;;;;;;21.78;52.69;98825.50;343873;28;1578;-81
2022/08/17 01:03:24;;;;;;;4.80;4.30;;;;;;;21.73;52.30;98824.13;344052;28;862;-80
2022/08/17 01:03:36;;;;;;;6.20;4.40;;;;;;;21.74;52.61;98824.94;344337;28;862;-80
2022/08/17 01:03:52;;;;;;;6.88;4.43;;;;;;;21.74;52.60;98823.13;344087;28;1645;-81
2022/08/17 01:04:10;;;;;;;5.38;4.40;;;;;;;21.73;52.65;98825.91;345141;28;1736;-81
2022/08/17 01:04:24;;;;;;;5.28;4.60;;;;;;;21.74;52.84;98824.94;345524;28;808;-81
2022/08/17 01:04:37;;;;;;;6.13;4.60;;;;;;;21.71;53.01;98820.78;343704;28;1375;-80
2022/08/17 01:04:51;;;;;;;7.68;4.75;;;;;;;21.72;53.00;98826.91;344458;28;755;-81
2022/08/17 01:05:05;;;;;;;7.28;4.82;;;;;;;21.72;52.90;98826.91;345073;28;1148;-81
2022/08/17 01:05:22;;;;;;;7.22;4.65;;;;;;;21.73;52.75;98824.13;344978;28;1063;-81
2022/08/17 01:05:37;;;;;;;5.50;4.50;;;;;;;21.72;52.99;98827.72;345320;28;1055;-81
2022/08/17 01:05:57;;;;;;;5.40;4.30;;;;;;;21.69;52.76;98822.75;345823;28;1919;-81
2022/08/17 01:06:09;;;;;;;5.65;4.20;;;;;;;21.65;52.79;98820.50;345402;28;1329;-80
2022/08/17 01:06:23;;;;;;;5.70;4.47;;;;;;;21.62;53.51;98823.44;345322;28;1631;-80
2022/08/17 01:06:36;;;;;;;4.75;4.35;;;;;;;21.62;53.13;98820.78;345543;28;1154;-80
2022/08/17 01:06:49;;;;;;;4.70;4.30;;;;;;;21.63;53.04;98825.09;344752;28;1961;-80
2022/08/17 01:07:03;;;;;;;5.90;4.45;;;;;;;21.65;52.86;98825.78;344566;28;1183;-80
2022/08/17 01:07:16;;;;;;;6.93;4.80;;;;;;;21.63;52.93;98817.16;344925;28;1027;-80
2022/08/17 01:07:28;;;;;;;5.80;4.85;;;;;;;21.65;52.96;98820.50;344901;28;1067;-81
2022/08/17 01:07:41;;;;;;;5.57;4.75;;;;;;;21.67;53.16;98814.13;345002;28;1111;-80
2022/08/17 01:07:53;;;;;;;5.10;4.60;;;;;;;21.64;53.35;98813.56;344603;28;1847;-82
2022/08/17 01:08:15;;;;;;;6.43;4.68;;;;;;;21.65;53.28;98820.50;345219;28;1114;-81
2022/08/17 01:08:29;;;;;;;6.75;4.47;;;;;;;21.66;53.54;98816.88;343603;28;1032;-81
2022/08/17 01:08:42;;;;;;;6.95;4.53;;;;;;;21.62;53.34;98823.44;343802;28;906;-81
2022/08/17 01:08:56;;;;;;;6.05;4.40;;;;;;;21.62;53.27;98815.50;343443;28;1075;-80
2022/08/17 01:09:09;;;;;;;5.43;4.57;;;;;;;21.56;53.27;98819.53;342762;28;841;-80
2022/08/17 01:09:21;;;;;;;6.22;4.72;;;;;;;21.53;53.07;98818.03;342460;28;1111;-80
2022/08/17 01:09:33;;;;;;;6.22;4.63;;;;;;;21.53;53.30;98823.31;342385;28;932;-80
2022/08/17 01:09:47;;;;;;;5.22;4.43;;;;;;;21.54;52.91;98817.03;343321;28;1247;-80
2022/08/17 01:10:02;;;;;;;6.43;4.60;;;;;;;21.56;53.49;98819.53;343172;28;1241;-81
2022/08/17 01:10:15;;;;;;;6.18;4.68;;;;;;;21.56;53.35;98821.34;344000;28;1187;-81
2022/08/17 01:10:52;;;;;;;4.85;4.35;;;;;;;21.58;53.10;98824.69;343956;28;1574;-81
2022/08/17 01:11:12;;;;;;;5.68;4.63;;;;;;;21.57;53.41;98821.22;345450;28;1639;-81
2022/08/17 01:11:26;;;;;;;6.18;4.50;;;;;;;21.58;53.45;98816.75;345991;28;1595;-82
2022/08/17 01:11:39;;;;;;;5.70;4.30;;;;;;;21.55;53.51;98820.53;345310;28;1983;-81
2022/08/17 01:11:51;;;;;;;5.18;4.20;;;;;;;21.57;53.58;98817.72;344047;28;1223;-81
2022/08/17 01:12:07;;;;;;;5.13;4.45;;;;;;;21.58;53.35;98819.41;343928;28;1182;-81
2022/08/17 01:12:20;;;;;;;5.18;4.68;;;;;;;21.54;53.33;98824.13;344722;28;1419;-81
2022/08/17 01:12:34;;;;;;;5.18;4.68;;;;;;;21.53;53.41;98817.16;343702;28;1068;-81
2022/08/17 01:12:46;;;;;;;5.18;4.57;;;;;;;21.51;53.66;98817.31;344487;28;2101;-80
2022/08/17 01:13:01;;;;;;;5.03;4.53;;;;;;;21.48;53.72;98820.25;344013;28;1417;-80
2022/08/17 01:13:14;;;;;;;5.43;4.80;;;;;;;21.49;53.58;98816.63;343782;28;1109;-80
2022/08/17 01:13:27;;;;;;;5.80;4.60;;;;;;;21.52;53.65;98821.63;343824;28;1256;-80
2022/08/17 01:13:41;;;;;;;6.10;4.50;;;;;;;21.53;53.36;98818.03;344481;28;1530;-81
2022/08/17 01:13:53;;;;;;;5.43;4.57;;;;;;;21.54;53.56;98819.66;345566;28;1067;-81
2022/08/17 01:14:07;;;;;;;6.05;4.57;;;;;;;21.53;53.54;98823.31;347882;28;1121;-81
2022/08/17 01:14:24;;;;;;;5.97;4.88;;;;;;;21.55;53.21;98815.25;347333;28;1700;-80
2022/08/17 01:14:36;;;;;;;5.32;4.60;;;;;;;21.51;53.13;98812.03;344725;28;1038;-80
2022/08/17 01:14:49;;;;;;;5.82;4.40;;;;;;;21.50;53.75;98818.28;344812;28;1819;-81
2022/08/17 01:15:04;;;;;;;6.30;4.60;;;;;;;21.51;53.16;98814.69;345302;28;1433;-81
2022/08/17 01:15:16;;;;;;;6.10;4.60;;;;;;;21.52;53.83;98811.03;344864;28;1036;-80
2022/08/17 01:15:30;;;;;;;5.75;4.55;;;;;;;21.52;53.49;98813.69;345282;28;874;-80
2022/08/17 01:15:54;;;;;;;5.75;4.43;;;;;;;21.54;53.45;98813.56;345407;28;1177;-81
2022/08/17 01:16:15;;;;;;;5.53;4.50;;;;;;;21.51;53.46;98817.31;344695;28;1177;-81
2022/08/17 01:16:29;;;;;;;5.22;4.72;;;;;;;21.51;53.43;98814.69;345003;28;1141;-80
2022/08/17 01:16:41;;;;;;;5.00;4.50;;;;;;;21.54;53.47;98816.19;345813;28;1365;-82
2022/08/17 01:16:54;;;;;;;4.82;4.32;;;;;;;21.54;53.66;98813.56;345271;28;1929;-81